createdAt,value
2023-04-16T00:01:16.964Z,56.22
2023-04-16T00:03:44.757Z,56.30
2023-04-16T00:06:12.849Z,55.98
2023-04-16T00:08:43.872Z,55.75
2023-04-16T00:11:11.591Z,55.78
2023-04-16T00:13:39.273Z,55.64
2023-04-16T00:16:08.708Z,55.75
2023-04-16T00:18:36.492Z,55.29
2023-04-16T00:21:04.452Z,55.30
2023-04-16T00:23:32.636Z,54.75
2023-04-16T00:26:01.708Z,55.08
2023-04-16T00:28:29.395Z,54.90
2023-04-16T00:30:57.816Z,54.95
2023-04-16T00:33:25.612Z,54.90
2023-04-16T00:35:53.346Z,55.27
2023-04-16T00:38:21.518Z,55.11
2023-04-16T00:40:49.212Z,55.12
2023-04-16T00:43:25.306Z,55.17
2023-04-16T00:45:53.951Z,54.98
2023-04-16T00:48:22.011Z,54.88
2023-04-16T00:50:50.347Z,55.27
2023-04-16T00:53:18.151Z,55.11
2023-04-16T00:55:46.496Z,55.23
2023-04-16T00:58:14.693Z,55.34
2023-04-16T01:00:43.783Z,55.38
2023-04-16T01:03:11.848Z,55.27
2023-04-16T01:05:41.057Z,55.20
2023-04-16T01:08:15.813Z,55.08
2023-04-16T01:10:43.904Z,54.92
2023-04-16T01:13:11.918Z,55.07
2023-04-16T01:15:39.791Z,55.30
2023-04-16T01:18:16.636Z,55.20
2023-04-16T01:20:46.211Z,55.10
2023-04-16T01:23:13.922Z,55.20
2023-04-16T01:25:42.115Z,55.20
2023-04-16T01:28:09.795Z,55.49
2023-04-16T01:30:37.512Z,55.11
2023-04-16T01:33:06.301Z,54.84
2023-04-16T01:35:33.977Z,54.76
2023-04-16T01:38:03.075Z,54.84
2023-04-16T01:40:31.494Z,55.08
2023-04-16T01:42:59.164Z,54.96
2023-04-16T01:45:26.967Z,54.98
2023-04-16T01:47:55.423Z,55.39
2023-04-16T01:50:24.867Z,55.07
2023-04-16T01:52:52.543Z,55.27
2023-04-16T01:55:22.532Z,54.88
2023-04-16T01:57:50.279Z,55.01
2023-04-16T02:00:18.033Z,55.45
2023-04-16T02:02:46.562Z,55.22
2023-04-16T02:05:14.439Z,55.23
2023-04-16T02:07:42.134Z,55.47
2023-04-16T02:10:11.720Z,55.26
2023-04-16T02:12:40.581Z,55.70
2023-04-16T02:15:09.393Z,55.33
2023-04-16T02:17:37.646Z,55.37
2023-04-16T02:20:08.020Z,55.46
2023-04-16T02:22:35.845Z,55.49
2023-04-16T02:25:03.979Z,55.25
2023-04-16T02:27:31.682Z,55.50
2023-04-16T02:30:00.718Z,55.61
2023-04-16T02:32:29.020Z,55.32
2023-04-16T02:34:57.044Z,55.50
2023-04-16T02:37:25.825Z,55.44
2023-04-16T02:39:54.100Z,55.51
2023-04-16T02:42:21.860Z,55.74
2023-04-16T02:44:49.534Z,55.57
2023-04-16T02:47:19.055Z,55.46
2023-04-16T02:49:46.810Z,55.62
2023-04-16T02:52:15.625Z,55.60
2023-04-16T02:54:43.901Z,56.32
2023-04-16T02:57:11.575Z,55.91
2023-04-16T02:59:39.257Z,56.04
2023-04-16T03:02:07.540Z,56.13
2023-04-16T03:04:36.791Z,55.85
2023-04-16T03:07:04.771Z,56.40
2023-04-16T03:09:33.650Z,56.51
2023-04-16T03:12:01.750Z,56.32
2023-04-16T03:14:29.560Z,56.31
2023-04-16T03:16:57.864Z,56.40
2023-04-16T03:19:25.713Z,56.18
2023-04-16T03:21:54.776Z,56.48
2023-04-16T03:24:22.902Z,56.45
2023-04-16T03:26:50.614Z,56.68
2023-04-16T03:29:18.286Z,56.72
2023-04-16T03:31:46.830Z,57.16
2023-04-16T03:34:14.504Z,57.21
2023-04-16T03:36:42.172Z,57.22
2023-04-16T03:39:11.456Z,57.57
2023-04-16T03:41:39.257Z,57.23
2023-04-16T03:44:06.944Z,57.52
2023-04-16T03:46:35.246Z,57.50
2023-04-16T03:49:02.934Z,57.74
2023-04-16T03:51:30.887Z,58.37
2023-04-16T03:53:59.133Z,58.59
2023-04-16T03:56:28.199Z,58.59
2023-04-16T03:58:55.895Z,59.13
2023-04-16T04:01:24.160Z,59.04
2023-04-16T04:03:52.069Z,59.08
2023-04-16T04:06:19.965Z,59.19
2023-04-16T04:08:48.072Z,59.36
2023-04-16T04:11:15.773Z,59.43
2023-04-16T04:13:44.805Z,59.26
2023-04-16T04:16:13.170Z,59.94
2023-04-16T04:18:41.718Z,59.34
2023-04-16T04:21:11.057Z,59.85
2023-04-16T04:23:39.441Z,59.75
2023-04-16T04:26:07.520Z,59.86
2023-04-16T04:28:36.111Z,59.97
2023-04-16T04:31:05.874Z,60.34
2023-04-16T04:33:33.382Z,59.61
2023-04-16T04:36:01.080Z,60.32
2023-04-16T04:38:30.487Z,60.29
2023-04-16T04:40:58.259Z,60.46
2023-04-16T04:43:26.194Z,60.98
2023-04-16T04:45:54.403Z,60.50
2023-04-16T04:48:26.526Z,60.56
2023-04-16T04:50:55.227Z,60.72
2023-04-16T04:53:22.949Z,60.86
2023-04-16T04:55:53.149Z,60.98
2023-04-16T04:58:23.805Z,60.84
2023-04-16T05:00:51.501Z,61.00
2023-04-16T05:03:22.607Z,60.66
2023-04-16T05:05:51.775Z,60.57
2023-04-16T05:08:19.440Z,60.45
2023-04-16T05:10:47.659Z,60.99
2023-04-16T05:13:15.358Z,61.16
2023-04-16T05:15:43.059Z,60.95
2023-04-16T05:18:11.181Z,60.98
2023-04-16T05:20:38.883Z,61.23
2023-04-16T05:23:07.964Z,61.43
2023-04-16T05:25:36.214Z,61.16
2023-04-16T05:28:04.005Z,60.92
2023-04-16T05:30:31.747Z,61.26
2023-04-16T05:33:00.323Z,60.97
2023-04-16T05:35:28.046Z,61.26
2023-04-16T05:37:55.719Z,61.55
2023-04-16T05:40:25.199Z,61.71
2023-04-16T05:42:52.882Z,61.35
2023-04-16T05:45:20.656Z,61.16
2023-04-16T05:47:49.170Z,61.18
2023-04-16T05:50:17.065Z,61.02
2023-04-16T05:52:44.749Z,61.49
2023-04-16T05:55:13.086Z,61.02
2023-04-16T05:57:42.151Z,61.45
2023-04-16T06:00:10.572Z,61.94
2023-04-16T06:02:38.884Z,61.56
2023-04-16T06:05:07.174Z,61.72
2023-04-16T06:07:34.885Z,62.20
2023-04-16T06:10:03.049Z,62.55
2023-04-16T06:12:31.029Z,62.54
2023-04-16T06:15:00.884Z,62.83
2023-04-16T06:17:29.248Z,62.52
2023-04-16T06:19:56.918Z,62.77
2023-04-16T06:22:25.578Z,63.04
2023-04-16T06:24:54.427Z,62.78
2023-04-16T06:27:22.089Z,63.38
2023-04-16T06:29:51.621Z,63.32
2023-04-16T06:32:21.300Z,63.12
2023-04-16T06:34:48.837Z,63.04
2023-04-16T06:37:16.533Z,63.50
2023-04-16T06:39:44.805Z,63.84
2023-04-16T06:42:12.656Z,63.31
2023-04-16T06:44:40.360Z,62.98
2023-04-16T06:47:08.844Z,63.47
2023-04-16T06:49:39.435Z,63.72
2023-04-16T06:52:07.261Z,63.82
2023-04-16T06:54:35.278Z,63.59
2023-04-16T06:57:02.985Z,63.51
2023-04-16T06:59:30.876Z,64.43
2023-04-16T07:01:59.192Z,63.62
2023-04-16T07:04:26.929Z,63.72
2023-04-16T07:06:56.035Z,64.14
2023-04-16T07:09:23.728Z,63.31
2023-04-16T07:11:51.432Z,62.74
2023-04-16T07:14:19.190Z,62.49
2023-04-16T07:16:47.559Z,61.93
2023-04-16T07:19:15.338Z,61.80
2023-04-16T07:21:43.707Z,61.72
2023-04-16T07:24:13.475Z,61.67
2023-04-16T07:26:41.117Z,61.54
2023-04-16T07:29:09.387Z,61.80
2023-04-16T07:31:38.284Z,61.88
2023-04-16T07:34:06.529Z,62.34
2023-04-16T07:36:34.505Z,62.54
2023-04-16T07:39:03.117Z,62.45
2023-04-16T07:41:32.705Z,63.24
2023-04-16T07:44:00.681Z,63.07
2023-04-16T07:46:36.198Z,63.02
2023-04-16T07:49:13.656Z,63.47
2023-04-16T07:51:41.862Z,63.17
2023-04-16T07:54:09.587Z,63.26
2023-04-16T07:56:38.647Z,63.15
2023-04-16T07:59:21.166Z,63.26
2023-04-16T08:01:50.341Z,63.19
2023-04-16T08:04:25.631Z,63.24
2023-04-16T08:06:54.408Z,63.42
2023-04-16T08:09:24.487Z,63.20
2023-04-16T08:11:53.529Z,63.09
2023-04-16T08:14:21.524Z,63.15
2023-04-16T08:16:49.613Z,63.16
2023-04-16T08:19:17.303Z,63.28
2023-04-16T08:21:45.404Z,63.43
2023-04-16T08:24:13.132Z,63.44
2023-04-16T08:26:41.268Z,63.33
2023-04-16T08:29:10.736Z,63.64
2023-04-16T08:31:39.455Z,63.59
2023-04-16T08:34:07.193Z,63.64
2023-04-16T08:36:34.891Z,63.58
2023-04-16T08:39:02.819Z,63.29
2023-04-16T08:41:33.459Z,63.47
2023-04-16T08:44:06.101Z,63.81
2023-04-16T08:46:38.761Z,63.82
2023-04-16T08:49:09.742Z,63.65
2023-04-16T08:51:37.979Z,63.52
2023-04-16T08:54:10.293Z,63.77
2023-04-16T08:56:39.471Z,63.59
2023-04-16T08:59:11.274Z,64.03
2023-04-16T09:01:41.980Z,63.72
2023-04-16T09:04:10.875Z,63.89
2023-04-16T09:06:42.107Z,64.13
2023-04-16T09:09:12.074Z,64.10
2023-04-16T09:11:40.651Z,64.27
2023-04-16T09:14:12.446Z,64.00
2023-04-16T09:16:43.079Z,64.73
2023-04-16T09:19:11.845Z,64.50
2023-04-16T09:21:42.568Z,64.39
2023-04-16T09:24:11.396Z,64.14
2023-04-16T09:26:39.848Z,64.16
2023-04-16T09:29:10.127Z,64.64
2023-04-16T09:31:38.470Z,64.54
2023-04-16T09:34:10.549Z,64.68
2023-04-16T09:36:38.740Z,64.56
2023-04-16T09:39:06.801Z,64.71
2023-04-16T09:41:40.167Z,64.93
2023-04-16T09:44:07.891Z,65.02
2023-04-16T09:46:37.036Z,65.05
2023-04-16T09:49:11.097Z,65.63
2023-04-16T09:51:42.283Z,65.25
2023-04-16T09:54:12.746Z,65.85
2023-04-16T09:56:42.620Z,65.45
2023-04-16T09:59:18.458Z,65.56
2023-04-16T10:01:49.541Z,65.51
2023-04-16T10:04:20.088Z,65.67
2023-04-16T10:07:04.550Z,65.85
2023-04-16T10:09:33.950Z,65.60
2023-04-16T10:12:02.294Z,65.68
2023-04-16T10:14:30.904Z,65.35
2023-04-16T10:16:59.561Z,65.18
2023-04-16T10:19:31.650Z,65.21
2023-04-16T10:22:00.614Z,65.59
2023-04-16T10:24:29.477Z,65.49
2023-04-16T10:26:57.867Z,65.16
2023-04-16T10:29:28.096Z,65.49
2023-04-16T10:31:57.842Z,65.53
2023-04-16T10:34:26.412Z,65.21
2023-04-16T10:36:57.038Z,65.74
2023-04-16T10:39:26.479Z,65.55
2023-04-16T10:42:09.916Z,66.10
2023-04-16T10:44:38.187Z,65.67
2023-04-16T10:47:13.399Z,65.40
2023-04-16T10:49:41.689Z,65.30
2023-04-16T10:52:13.602Z,65.26
2023-04-16T10:54:42.382Z,65.29
2023-04-16T10:57:18.522Z,65.30
2023-04-16T10:59:47.144Z,65.17
2023-04-16T11:02:17.570Z,64.96
2023-04-16T11:04:46.741Z,65.07
2023-04-16T11:07:20.712Z,65.17
2023-04-16T11:10:00.206Z,64.68
2023-04-16T11:12:34.466Z,64.46
2023-04-16T11:15:04.872Z,64.51
2023-04-16T11:17:34.912Z,64.79
2023-04-16T11:20:03.205Z,64.65
2023-04-16T11:22:36.958Z,64.74
2023-04-16T11:25:05.775Z,65.01
2023-04-16T11:27:33.680Z,64.91
2023-04-16T11:30:04.652Z,64.60
2023-04-16T11:32:33.952Z,64.87
2023-04-16T11:35:04.927Z,64.53
2023-04-16T11:37:35.839Z,64.38
2023-04-16T11:40:07.337Z,64.26
2023-04-16T11:42:37.261Z,64.44
2023-04-16T11:45:06.215Z,64.53
2023-04-16T11:47:46.465Z,64.43
2023-04-16T11:50:22.127Z,64.44
2023-04-16T11:52:53.048Z,64.51
2023-04-16T11:55:21.764Z,64.34
2023-04-16T11:57:51.082Z,64.13
2023-04-16T12:00:24.363Z,64.34
2023-04-16T12:02:54.410Z,64.27
2023-04-16T12:05:31.437Z,64.33
2023-04-16T12:08:02.326Z,64.05
2023-04-16T12:10:31.781Z,64.08
2023-04-16T12:13:12.678Z,64.18
2023-04-16T12:15:48.469Z,64.36
2023-04-16T12:18:17.028Z,64.30
2023-04-16T12:20:47.598Z,64.02
2023-04-16T12:23:27.580Z,64.13
2023-04-16T12:25:56.623Z,64.11
2023-04-16T12:28:32.697Z,64.35
2023-04-16T12:31:01.155Z,64.20
2023-04-16T12:33:29.397Z,64.39
2023-04-16T12:35:58.529Z,64.25
2023-04-16T12:38:28.309Z,64.18
2023-04-16T12:40:57.873Z,64.46
2023-04-16T12:43:26.680Z,64.73
2023-04-16T12:45:54.873Z,64.60
2023-04-16T12:48:22.981Z,64.94
2023-04-16T12:50:51.341Z,64.58
2023-04-16T12:53:19.515Z,64.65
2023-04-16T12:55:49.031Z,64.68
2023-04-16T12:58:17.491Z,64.42
2023-04-16T13:00:46.067Z,64.29
2023-04-16T13:03:14.288Z,64.57
2023-04-16T13:05:42.738Z,64.65
2023-04-16T13:08:10.847Z,64.33
2023-04-16T13:10:39.013Z,64.58
2023-04-16T13:13:10.515Z,64.01
2023-04-16T13:15:38.814Z,64.25
2023-04-16T13:18:07.084Z,64.21
2023-04-16T13:20:36.193Z,64.27
2023-04-16T13:23:04.964Z,63.95
2023-04-16T13:25:33.009Z,63.65
2023-04-16T13:28:01.270Z,63.86
2023-04-16T13:30:31.817Z,63.83
2023-04-16T13:33:00.144Z,63.97
2023-04-16T13:35:28.699Z,63.86
2023-04-16T13:37:56.798Z,64.27
2023-04-16T13:40:24.801Z,64.24
2023-04-16T13:42:53.197Z,64.56
2023-04-16T13:45:21.675Z,64.48
2023-04-16T13:47:51.389Z,64.28
2023-04-16T13:50:19.464Z,64.05
2023-04-16T13:52:47.917Z,64.18
2023-04-16T13:55:19.233Z,64.58
2023-04-16T13:57:48.297Z,64.51
2023-04-16T14:00:17.368Z,64.30
2023-04-16T14:02:46.169Z,64.30
2023-04-16T14:05:15.858Z,64.37
2023-04-16T14:07:43.613Z,64.76
2023-04-16T14:10:12.654Z,64.55
2023-04-16T14:12:40.756Z,64.54
2023-04-16T14:15:10.755Z,64.02
2023-04-16T14:17:38.805Z,63.94
2023-04-16T14:20:08.065Z,64.12
2023-04-16T14:22:37.552Z,63.89
2023-04-16T14:25:06.100Z,63.66
2023-04-16T14:27:35.261Z,63.65
2023-04-16T14:30:03.478Z,63.74
2023-04-16T14:32:32.498Z,63.42
2023-04-16T14:35:00.723Z,63.54
2023-04-16T14:37:28.715Z,63.79
2023-04-16T14:39:58.750Z,63.77
2023-04-16T14:42:27.214Z,63.65
2023-04-16T14:44:55.343Z,63.59
2023-04-16T14:47:23.555Z,63.65
2023-04-16T14:49:51.692Z,63.88
2023-04-16T14:52:19.757Z,63.88
2023-04-16T14:54:49.491Z,63.36
2023-04-16T14:57:18.894Z,63.16
2023-04-16T14:59:46.975Z,62.74
2023-04-16T15:02:15.255Z,62.67
2023-04-16T15:04:43.417Z,63.01
2023-04-16T15:07:11.752Z,63.20
2023-04-16T15:09:40.403Z,62.97
2023-04-16T15:12:08.329Z,63.16
2023-04-16T15:14:37.543Z,63.02
2023-04-16T15:17:05.737Z,63.21
2023-04-16T15:19:33.996Z,62.91
2023-04-16T15:22:02.218Z,62.46
2023-04-16T15:24:30.843Z,62.66
2023-04-16T15:26:58.942Z,62.84
2023-04-16T15:29:26.950Z,62.67
2023-04-16T15:31:56.641Z,62.89
2023-04-16T15:34:24.747Z,62.78
2023-04-16T15:36:52.711Z,62.90
2023-04-16T15:39:21.599Z,62.41
2023-04-16T15:42:00.831Z,62.80
2023-04-16T15:44:32.162Z,62.60
2023-04-16T15:47:01.907Z,62.38
2023-04-16T15:49:29.877Z,62.72
2023-04-16T15:51:58.304Z,62.50
2023-04-16T15:54:26.302Z,62.40
2023-04-16T15:56:54.431Z,62.34
2023-04-16T15:59:22.902Z,62.72
2023-04-16T16:01:50.964Z,62.23
2023-04-16T16:04:23.152Z,62.48
2023-04-16T16:12:29.557Z,61.96
2023-04-16T16:14:58.786Z,62.29
2023-04-16T16:17:26.965Z,62.22
2023-04-16T16:19:57.666Z,62.12
2023-04-16T16:22:26.137Z,61.77
2023-04-16T16:24:56.360Z,62.06
2023-04-16T16:27:24.656Z,61.99
2023-04-16T16:29:52.655Z,61.50
2023-04-16T16:32:20.688Z,61.55
2023-04-16T16:34:48.730Z,61.48
2023-04-16T16:37:18.067Z,61.92
2023-04-16T16:39:46.129Z,61.96
2023-04-16T16:42:19.170Z,62.15
2023-04-16T16:44:48.819Z,61.58
2023-04-16T16:47:17.020Z,61.91
2023-04-16T16:49:45.686Z,61.92
2023-04-16T16:52:13.613Z,62.28
2023-04-16T16:54:43.421Z,62.03
2023-04-16T16:57:11.663Z,61.69
2023-04-16T16:59:39.843Z,62.36
2023-04-16T17:02:08.333Z,62.17
2023-04-16T17:04:36.613Z,62.27
2023-04-16T17:07:04.736Z,61.86
2023-04-16T17:09:33.151Z,62.15
2023-04-16T17:12:02.736Z,61.88
2023-04-16T17:14:30.517Z,62.27
2023-04-16T17:16:58.519Z,61.91
2023-04-16T17:19:26.673Z,61.42
2023-04-16T17:21:54.947Z,61.53
2023-04-16T17:24:23.095Z,61.64
2023-04-16T17:26:52.161Z,61.83
2023-04-16T17:29:26.062Z,61.83
2023-04-16T17:31:55.157Z,62.03
2023-04-16T17:34:23.276Z,61.76
2023-04-16T17:36:51.394Z,61.62
2023-04-16T17:39:19.614Z,61.63
2023-04-16T17:41:47.693Z,61.79
2023-04-16T17:44:16.128Z,61.54
2023-04-16T17:46:45.923Z,62.20
2023-04-16T17:49:14.145Z,61.58
2023-04-16T17:51:44.620Z,61.68
2023-04-16T17:54:13.221Z,61.89
2023-04-16T17:56:41.463Z,61.92
2023-04-16T17:59:09.337Z,61.64
2023-04-16T18:01:38.086Z,61.41
2023-04-16T18:04:08.042Z,61.20
2023-04-16T18:06:36.180Z,61.27
2023-04-16T18:09:06.276Z,61.53
2023-04-16T18:11:34.303Z,61.16
2023-04-16T18:14:02.282Z,61.62
2023-04-16T18:16:30.658Z,61.67
2023-04-16T18:18:59.230Z,62.00
2023-04-16T18:21:29.962Z,61.24
2023-04-16T18:23:58.355Z,61.85
2023-04-16T18:26:29.685Z,61.27
2023-04-16T18:28:58.527Z,61.36
2023-04-16T18:31:26.946Z,61.67
2023-04-16T18:33:57.888Z,61.36
2023-04-16T18:36:27.070Z,61.74
2023-04-16T18:39:01.756Z,61.11
2023-04-16T18:41:44.196Z,61.57
2023-04-16T18:44:12.666Z,61.12
2023-04-16T18:46:40.703Z,61.90
2023-04-16T18:49:09.492Z,61.47
2023-04-16T18:51:37.694Z,61.47
2023-04-16T18:54:07.318Z,61.31
2023-04-16T18:56:35.081Z,61.33
2023-04-16T18:59:03.250Z,61.24
2023-04-16T19:01:31.601Z,61.75
2023-04-16T19:04:00.043Z,61.89
2023-04-16T19:06:29.351Z,61.59
2023-04-16T19:08:57.496Z,61.63
2023-04-16T19:11:27.360Z,61.53
2023-04-16T19:13:55.542Z,61.92
2023-04-16T19:16:23.757Z,62.26
2023-04-16T19:18:52.828Z,61.99
2023-04-16T19:21:21.156Z,62.34
2023-04-16T19:23:49.494Z,62.47
2023-04-16T19:26:18.474Z,62.47
2023-04-16T19:28:48.003Z,61.96
2023-04-16T19:31:16.210Z,62.19
2023-04-16T19:33:44.781Z,62.20
2023-04-16T19:36:13.035Z,62.38
2023-04-16T19:38:41.224Z,62.12
2023-04-16T19:41:09.789Z,62.17
2023-04-16T19:43:37.823Z,62.68
2023-04-16T19:46:07.451Z,62.66
2023-04-16T19:48:35.348Z,62.15
2023-04-16T19:51:05.467Z,62.11
2023-04-16T19:53:34.533Z,62.01
2023-04-16T19:56:03.375Z,62.47
2023-04-16T19:58:32.044Z,62.50
2023-04-16T20:01:00.145Z,62.58
2023-04-16T20:03:30.162Z,62.30
2023-04-16T20:05:58.326Z,62.69
2023-04-16T20:08:26.533Z,62.36
2023-04-16T20:10:55.736Z,62.81
2023-04-16T20:13:23.709Z,62.80
2023-04-16T20:15:53.374Z,62.40
2023-04-16T20:18:22.177Z,62.67
2023-04-16T20:20:51.793Z,62.72
2023-04-16T20:23:20.087Z,62.63
2023-04-16T20:25:48.609Z,62.59
2023-04-16T20:28:18.282Z,62.69
2023-04-16T20:30:46.198Z,62.54
2023-04-16T20:33:14.512Z,62.39
2023-04-16T20:35:42.819Z,62.49
2023-04-16T20:38:12.297Z,62.28
2023-04-16T20:40:42.252Z,62.82
2023-04-16T20:43:14.328Z,62.46
2023-04-16T20:45:46.625Z,62.58
2023-04-16T20:48:14.737Z,62.26
2023-04-16T20:50:42.863Z,62.18
2023-04-16T20:53:13.311Z,62.36
2023-04-16T20:55:41.276Z,62.54
2023-04-16T20:58:09.571Z,62.18
2023-04-16T21:00:37.841Z,62.70
2023-04-16T21:03:06.979Z,62.74
2023-04-16T21:05:35.198Z,62.93
2023-04-16T21:08:03.423Z,62.60
2023-04-16T21:10:32.958Z,62.32
2023-04-16T21:13:00.918Z,62.67
2023-04-16T21:15:29.433Z,62.46
2023-04-16T21:17:57.338Z,62.77
2023-04-16T21:20:25.670Z,62.27
2023-04-16T21:22:57.489Z,62.58
2023-04-16T21:25:25.841Z,62.23
2023-04-16T21:27:55.730Z,62.81
2023-04-16T21:30:24.432Z,62.57
2023-04-16T21:32:52.755Z,62.46
2023-04-16T21:35:21.344Z,62.64
2023-04-16T21:37:50.317Z,62.66
2023-04-16T21:40:18.825Z,62.68
2023-04-16T21:42:47.132Z,62.29
2023-04-16T21:45:17.066Z,62.59
2023-04-16T21:47:45.344Z,62.31
2023-04-16T21:50:14.125Z,62.30
2023-04-16T21:52:46.929Z,62.10
2023-04-16T21:55:15.271Z,62.13
2023-04-16T21:57:43.429Z,62.50
2023-04-16T22:00:14.443Z,61.95
2023-04-16T22:02:44.370Z,62.42
2023-04-16T22:05:12.602Z,62.13
2023-04-16T22:07:42.132Z,62.57
2023-04-16T22:10:11.812Z,62.23
2023-04-16T22:12:41.713Z,62.06
2023-04-16T22:15:11.315Z,61.85
2023-04-16T22:17:39.710Z,62.49
2023-04-16T22:20:13.012Z,62.07
2023-04-16T22:22:41.440Z,62.27
2023-04-16T22:25:10.778Z,62.17
2023-04-16T22:27:39.708Z,62.44
2023-04-16T22:30:09.434Z,62.30
2023-04-16T22:32:37.678Z,61.77
2023-04-16T22:35:07.153Z,62.23
2023-04-16T22:37:37.099Z,62.04
2023-04-16T22:40:08.500Z,62.29
2023-04-16T22:42:36.683Z,62.29
2023-04-16T22:45:05.510Z,62.13
2023-04-16T22:47:34.253Z,62.62
2023-04-16T22:50:03.317Z,62.45
2023-04-16T22:52:31.453Z,62.62
2023-04-16T22:55:01.742Z,62.61
2023-04-16T22:57:29.843Z,62.75
2023-04-16T22:59:57.886Z,62.38
2023-04-16T23:02:26.965Z,62.22
2023-04-16T23:04:55.018Z,62.33
2023-04-16T23:07:23.159Z,62.41
2023-04-16T23:09:52.182Z,62.09
2023-04-16T23:12:21.695Z,62.38
2023-04-16T23:14:49.742Z,62.05
2023-04-16T23:17:18.569Z,62.36
2023-04-16T23:19:46.601Z,62.29
2023-04-16T23:22:14.848Z,62.33
2023-04-16T23:24:43.312Z,62.16
2023-04-16T23:27:11.498Z,62.29
2023-04-16T23:29:41.370Z,62.23
2023-04-16T23:32:10.809Z,62.04
2023-04-16T23:34:38.979Z,61.93
2023-04-16T23:37:07.111Z,61.78
2023-04-16T23:39:35.806Z,61.82
2023-04-16T23:42:03.910Z,61.98
2023-04-16T23:44:32.130Z,62.37
2023-04-16T23:47:02.551Z,62.14
2023-04-16T23:49:30.821Z,62.38
2023-04-16T23:51:59.184Z,62.45
2023-04-16T23:54:28.068Z,62.41
2023-04-16T23:56:57.166Z,62.55
2023-04-16T23:59:25.561Z,63.02
